Terminal Aerodrome Forecast
Issued by NWS Cleveland, OH

Home | Current Version | Previous Version | Graphics & Text | Print | Product List | Glossary On
Versions: 1 2 3 4 5 6 7 8 9 10 11 12 13 14 15 16 17 18 19 20 21
475
FTUS41 KCLE 132332
TAFMFD
TAF
KMFD 132332Z 1400/1424 17013KT 1SM -SN OVC007
     FM140400 30012KT 2SM -SN OVC007
     FM140900 32012KT P6SM OVC007
     FM141500 30007KT P6SM OVC015=

USA.gov is the U.S. government's official web portal to all federal, state and local government web resources and services.